Time;durP1;ratioP1;P1;durP2;ratioP2;P2;SDS_P1;SDS_P2;PMS_P1;PMS_P2;Temp;Humidity;BMP_temperature;BMP_pressure;BME280_temperature;BME280_humidity;BME280_pressure;Samples;Min_cycle;Max_cycle;Signal;HPM_P1;HPM_P2
2022/06/08 00:01:05;;;;;;;4.63;2.47;;;10.50;99.90;;;;;;4879913;29;20079;-88
2022/06/08 00:03:45;;;;;;;2.88;1.60;;;10.40;99.90;;;;;;4864194;29;20064;-88
2022/06/08 00:06:12;;;;;;;2.20;2.00;;;10.40;99.90;;;;;;4896215;29;20083;-88
2022/06/08 00:08:37;;;;;;;3.83;2.00;;;10.40;99.90;;;;;;4879679;29;20155;-89
2022/06/08 00:11:04;;;;;;;1.77;1.50;;;10.30;99.90;;;;;;4864906;29;20132;-88
2022/06/08 00:13:29;;;;;;;2.03;1.85;;;10.30;99.90;;;;;;4880289;29;20055;-88
2022/06/08 00:15:55;;;;;;;2.30;2.10;;;10.30;99.90;;;;;;4849206;29;20065;-89
2022/06/08 00:18:21;;;;;;;2.88;1.52;;;10.30;99.90;;;;;;4866729;29;20452;-88
2022/06/08 00:20:47;;;;;;;3.07;1.33;;;10.30;99.90;;;;;;4864546;29;20139;-90
2022/06/08 00:23:13;;;;;;;1.10;1.00;;;10.30;99.90;;;;;;4849370;29;20056;-88
2022/06/08 00:25:40;;;;;;;1.70;1.38;;;10.70;99.90;;;;;;4860708;29;20049;-88
2022/06/08 00:28:06;;;;;;;4.60;2.08;;;10.20;99.90;;;;;;4863407;29;20058;-88
2022/06/08 00:30:35;;;;;;;1.60;1.30;;;10.20;99.90;;;;;;4864871;29;20053;-88
2022/06/08 00:33:01;;;;;;;2.55;1.98;;;10.20;99.90;;;;;;4864452;29;20826;-88
2022/06/08 00:35:26;;;;;;;7.40;2.57;;;10.20;99.90;;;;;;4879984;29;20056;-87
2022/06/08 00:37:52;;;;;;;2.33;2.13;;;10.20;99.90;;;;;;4838250;29;20571;-90
2022/06/08 00:40:22;;;;;;;2.73;2.03;;;10.10;99.90;;;;;;4862214;29;20132;-88
2022/06/08 00:42:49;;;;;;;3.05;1.85;;;10.10;99.90;;;;;;4880400;29;20139;-88
2022/06/08 00:45:19;;;;;;;3.58;1.77;;;10.10;99.90;;;;;;4871761;29;20048;-87
2022/06/08 00:47:50;;;;;;;2.47;1.83;;;10.10;99.90;;;;;;4882582;29;20056;-89
2022/06/08 00:50:21;;;;;;;3.08;2.00;;;10.10;99.90;;;;;;4867155;29;20048;-88
2022/06/08 00:52:48;;;;;;;2.25;2.05;;;10.10;99.90;;;;;;4878458;29;20484;-88
2022/06/08 00:55:18;;;;;;;2.30;1.80;;;10.10;99.90;;;;;;4848958;29;20183;-88
2022/06/08 00:57:48;;;;;;;1.52;1.42;;;10.20;99.90;;;;;;4883447;29;20074;-88
2022/06/08 01:00:27;;;;;;;2.42;1.88;;;10.00;99.90;;;;;;4880967;29;20555;-89
2022/06/08 01:02:53;;;;;;;2.30;2.10;;;10.00;99.90;;;;;;4880338;29;20076;-91
2022/06/08 01:05:21;;;;;;;2.50;1.48;;;9.90;99.90;;;;;;4882851;29;20044;-88
2022/06/08 01:07:51;;;;;;;1.92;1.58;;;9.90;99.90;;;;;;4868131;29;20048;-88
2022/06/08 01:10:21;;;;;;;5.47;2.00;;;9.90;99.90;;;;;;4882860;29;20041;-88
2022/06/08 01:12:47;;;;;;;2.30;1.85;;;9.90;99.90;;;;;;4896148;29;20064;-87
2022/06/08 01:15:19;;;;;;;2.78;1.90;;;9.90;99.90;;;;;;4864017;29;20037;-90
2022/06/08 01:17:45;;;;;;;2.53;1.52;;;9.90;99.90;;;;;;4882330;29;20053;-87
2022/06/08 01:20:11;;;;;;;2.30;1.37;;;9.80;99.90;;;;;;4882848;29;20048;-91
2022/06/08 01:22:38;;;;;;;3.72;1.90;;;9.80;99.90;;;;;;4898782;29;20408;-88
2022/06/08 01:25:06;;;;;;;7.32;2.55;;;9.80;99.90;;;;;;4842707;29;20342;-88
2022/06/08 01:28:11;;;;;;;7.10;2.67;;;9.80;99.90;;;;;;4882934;29;20144;-88
2022/06/08 01:30:57;;;;;;;6.95;2.95;;;9.80;99.90;;;;;;4883258;29;20060;-87
2022/06/08 01:33:35;;;;;;;7.72;3.10;;;9.90;99.90;;;;;;4866997;29;20040;-88
2022/06/08 01:36:29;;;;;;;2.72;2.00;;;9.90;99.90;;;;;;4861990;29;20128;-88
2022/06/08 01:39:03;;;;;;;4.53;2.85;;;9.90;99.90;;;;;;4877935;29;20398;-87
2022/06/08 01:41:43;;;;;;;3.42;2.55;;;9.90;99.90;;;;;;4883248;29;20058;-87
2022/06/08 01:44:41;;;;;;;4.88;2.72;;;9.90;99.90;;;;;;4866442;29;20104;-88
2022/06/08 01:47:13;;;;;;;3.70;3.30;;;10.00;99.90;;;;;;4878618;29;20076;-87
2022/06/08 01:49:41;;;;;;;3.38;2.53;;;9.90;99.90;;;;;;4867491;29;20440;-87
2022/06/08 01:52:29;;;;;;;5.35;3.65;;;9.90;99.90;;;;;;4882114;29;20484;-88
2022/06/08 01:55:15;;;;;;;4.13;2.42;;;9.90;99.90;;;;;;4880717;29;20060;-87
2022/06/08 01:58:04;;;;;;;3.45;2.40;;;9.90;99.90;;;;;;4853931;29;20045;-87
2022/06/08 02:00:36;;;;;;;3.08;2.42;;;9.90;99.90;;;;;;4860629;29;20053;-87
2022/06/08 02:03:16;;;;;;;4.72;2.75;;;9.90;99.90;;;;;;4866140;29;20041;-93
2022/06/08 02:05:59;;;;;;;5.40;3.95;;;9.90;99.90;;;;;;4879919;29;20080;-88
2022/06/08 02:08:49;;;;;;;3.15;2.63;;;9.90;99.90;;;;;;4881638;29;20112;-88
2022/06/08 02:11:18;;;;;;;4.05;2.72;;;9.90;99.90;;;;;;4890108;29;20108;-88
2022/06/08 02:14:03;;;;;;;3.97;2.83;;;9.90;99.90;;;;;;4882025;29;20112;-93
2022/06/08 02:16:38;;;;;;;3.97;2.70;;;9.90;99.90;;;;;;4867312;29;20061;-88
2022/06/08 02:19:06;;;;;;;5.38;3.95;;;9.90;99.90;;;;;;4878255;29;20069;-92
2022/06/08 02:22:07;;;;;;;4.28;3.15;;;9.90;99.90;;;;;;4868433;29;20516;-88
2022/06/08 02:24:45;;;;;;;3.47;2.55;;;9.90;99.90;;;;;;4859332;29;20063;-92
2022/06/08 02:27:24;;;;;;;5.22;3.20;;;9.90;99.90;;;;;;4874654;29;20045;-88
2022/06/08 02:29:55;;;;;;;4.88;3.35;;;9.90;99.90;;;;;;4882215;29;20052;-88
2022/06/08 02:35:35;;;;;;;5.50;3.53;;;9.90;99.90;;;;;;4877735;29;20233;-87
2022/06/08 02:38:10;;;;;;;5.13;3.35;;;9.90;99.90;;;;;;4881206;29;20053;-88
2022/06/08 02:40:40;;;;;;;4.70;3.58;;;9.90;99.90;;;;;;4881777;29;20104;-87
2022/06/08 02:43:11;;;;;;;8.80;4.07;;;10.20;99.90;;;;;;4881546;29;20067;-87
2022/06/08 02:45:40;;;;;;;6.88;4.03;;;9.80;99.90;;;;;;4881784;29;20127;-87
2022/06/08 02:48:12;;;;;;;6.57;5.00;;;9.80;99.90;;;;;;4881740;29;20048;-87
2022/06/08 02:50:49;;;;;;;4.25;3.45;;;9.80;99.90;;;;;;4882398;29;20065;-88
2022/06/08 02:53:20;;;;;;;4.57;3.63;;;9.80;99.90;;;;;;4865515;29;20499;-87
2022/06/08 02:56:01;;;;;;;8.50;4.32;;;9.80;99.90;;;;;;4881810;29;20056;-88
2022/06/08 02:58:37;;;;;;;5.72;3.60;;;9.80;99.90;;;;;;4878967;29;20052;-87
2022/06/08 03:01:12;;;;;;;6.10;3.60;;;9.80;99.90;;;;;;4882039;29;20053;-87
2022/06/08 03:03:59;;;;;;;6.03;3.53;;;9.80;99.90;;;;;;4877406;29;20060;-87
2022/06/08 03:06:41;;;;;;;6.82;3.58;;;9.80;99.90;;;;;;4881396;29;20083;-87
2022/06/08 03:09:13;;;;;;;6.68;4.57;;;9.80;99.90;;;;;;4881085;29;20488;-87
2022/06/08 03:11:43;;;;;;;5.25;3.85;;;9.80;99.90;;;;;;4881693;29;20518;-87
2022/06/08 03:14:12;;;;;;;5.88;4.20;;;10.20;99.90;;;;;;4880894;29;20074;-88
2022/06/08 03:16:51;;;;;;;4.95;3.90;;;9.90;99.90;;;;;;4880840;29;20052;-87
2022/06/08 03:19:17;;;;;;;6.85;5.43;;;9.90;99.90;;;;;;4861895;29;20057;-88
2022/06/08 03:21:43;;;;;;;5.63;4.05;;;9.80;99.90;;;;;;4874246;29;20107;-88
2022/06/08 03:24:08;;;;;;;7.47;3.33;;;10.10;99.90;;;;;;4880838;29;20123;-92
2022/06/08 03:26:42;;;;;;;8.93;5.30;;;9.90;99.90;;;;;;4849795;29;20077;-87
2022/06/08 03:29:07;;;;;;;6.93;4.50;;;9.90;99.90;;;;;;4880961;29;20420;-88
2022/06/08 03:31:33;;;;;;;5.57;3.63;;;9.90;99.90;;;;;;4880848;29;20093;-87
2022/06/08 03:33:59;;;;;;;6.13;4.10;;;9.80;99.90;;;;;;4880687;29;20047;-87
2022/06/08 03:36:25;;;;;;;5.47;3.93;;;9.90;99.90;;;;;;4865529;29;20067;-88
2022/06/08 03:38:50;;;;;;;5.07;3.63;;;9.90;99.90;;;;;;4864980;29;20048;-87
2022/06/08 03:41:16;;;;;;;6.17;4.20;;;9.90;99.90;;;;;;4880186;29;20104;-92
2022/06/08 03:43:42;;;;;;;4.23;3.33;;;9.80;99.90;;;;;;4877298;29;20064;-87
2022/06/08 03:46:10;;;;;;;4.33;2.70;;;9.90;99.90;;;;;;4865990;29;20091;-88
2022/06/08 03:48:38;;;;;;;4.10;3.25;;;9.90;99.90;;;;;;4880639;29;20045;-87
2022/06/08 03:51:06;;;;;;;6.25;4.72;;;9.90;99.90;;;;;;4864741;29;20092;-87
2022/06/08 03:53:51;;;;;;;5.55;3.33;;;9.90;99.90;;;;;;4880548;29;20059;-87
2022/06/08 03:56:18;;;;;;;5.47;4.13;;;9.90;99.90;;;;;;4862284;29;20045;-90
2022/06/08 03:58:46;;;;;;;5.22;3.70;;;11.10;99.90;;;;;;4846950;29;20091;-88
2022/06/08 04:01:13;;;;;;;5.13;3.70;;;10.10;99.90;;;;;;4862405;29;20079;-88
2022/06/08 04:03:39;;;;;;;4.60;3.90;;;9.90;99.90;;;;;;4880215;29;20107;-87
2022/06/08 04:06:05;;;;;;;7.00;4.50;;;10.00;99.90;;;;;;4880986;29;20041;-87
2022/06/08 04:08:31;;;;;;;7.57;5.07;;;10.00;99.90;;;;;;4864665;29;20045;-87
2022/06/08 04:10:58;;;;;;;4.57;4.18;;;10.00;99.90;;;;;;4865110;29;20052;-87
2022/06/08 04:13:24;;;;;;;;;;;10.40;99.90;;;;;;4877568;29;20108;-88
2022/06/08 04:15:49;;;;;;;8.00;4.35;;;10.10;99.90;;;;;;4856893;29;19924;-87
2022/06/08 04:18:21;;;;;;;7.83;5.37;;;10.20;99.90;;;;;;4834723;29;20130;-87
2022/06/08 04:20:51;;;;;;;7.13;5.30;;;10.30;99.90;;;;;;4880683;29;20056;-87
2022/06/08 04:23:18;;;;;;;8.55;5.93;;;10.30;99.90;;;;;;4883730;29;20091;-87
2022/06/08 04:25:44;;;;;;;13.25;7.28;;;10.50;99.90;;;;;;4883687;29;20397;-87
2022/06/08 04:28:13;;;;;;;9.20;6.10;;;10.50;99.90;;;;;;4883632;29;20068;-87
2022/06/08 04:30:39;;;;;;;7.32;6.15;;;10.60;99.90;;;;;;4874406;29;20049;-88
2022/06/08 04:33:05;;;;;;;9.77;5.95;;;10.70;99.90;;;;;;4867658;29;20052;-88
2022/06/08 04:35:32;;;;;;;8.50;5.93;;;10.70;99.90;;;;;;4883439;29;20480;-88
2022/06/08 04:37:58;;;;;;;12.93;7.32;;;10.80;99.90;;;;;;4883309;29;20049;-88
2022/06/08 04:40:24;;;;;;;7.53;6.60;;;10.90;99.90;;;;;;4853438;29;20103;-91
2022/06/08 04:42:50;;;;;;;13.18;7.65;;;11.00;99.90;;;;;;4883081;29;20048;-88
2022/06/08 04:45:16;;;;;;;9.83;7.70;;;11.00;99.90;;;;;;4883286;29;20047;-87
2022/06/08 04:47:42;;;;;;;8.33;6.40;;;11.00;99.90;;;;;;4883525;29;20088;-88
2022/06/08 04:50:08;;;;;;;14.23;7.03;;;11.10;99.90;;;;;;4846786;29;20120;-87
2022/06/08 04:52:38;;;;;;;10.95;7.18;;;11.10;99.90;;;;;;4867314;29;20525;-88
2022/06/08 04:55:06;;;;;;;18.50;8.70;;;11.20;99.90;;;;;;4861043;29;20063;-88
2022/06/08 04:57:37;;;;;;;13.27;8.18;;;11.30;99.90;;;;;;4862516;29;20044;-88
2022/06/08 05:00:10;;;;;;;12.07;7.80;;;11.30;99.90;;;;;;4883619;29;20048;-88
2022/06/08 05:02:45;;;;;;;13.32;7.63;;;11.40;99.90;;;;;;4881753;29;20049;-88
2022/06/08 05:05:22;;;;;;;12.40;8.20;;;11.40;99.90;;;;;;4878434;29;20048;-88
2022/06/08 05:07:49;;;;;;;13.45;9.15;;;11.50;99.90;;;;;;4883317;29;20115;-88
2022/06/08 05:10:15;;;;;;;;;;;12.60;99.90;;;;;;4883389;29;20049;-88
2022/06/08 05:12:41;;;;;;;11.25;6.97;;;11.60;99.90;;;;;;4882849;29;19930;-88
2022/06/08 05:15:11;;;;;;;14.00;8.68;;;11.70;99.90;;;;;;4866296;29;20440;-88
2022/06/08 05:17:36;;;;;;;17.80;9.95;;;11.70;99.90;;;;;;4879904;29;20100;-88
2022/06/08 05:20:05;;;;;;;13.40;9.13;;;11.70;99.90;;;;;;4879743;29;20044;-88
2022/06/08 05:22:33;;;;;;;13.55;9.27;;;11.80;99.90;;;;;;4879691;29;20309;-90
2022/06/08 05:25:03;;;;;;;13.85;8.57;;;11.80;99.90;;;;;;4862368;29;20454;-88
2022/06/08 05:27:29;;;;;;;15.13;10.65;;;11.80;99.90;;;;;;4880460;29;20049;-87
2022/06/08 05:29:55;;;;;;;12.83;10.57;;;11.90;99.90;;;;;;4830499;29;20060;-88
2022/06/08 05:32:23;;;;;;;14.77;8.97;;;11.90;99.90;;;;;;4861400;29;20068;-91
2022/06/08 05:34:48;;;;;;;15.27;8.73;;;12.00;99.90;;;;;;4873803;29;20116;-88
2022/06/08 05:37:14;;;;;;;13.93;8.90;;;12.10;99.90;;;;;;4876652;29;20049;-88
2022/06/08 05:39:41;;;;;;;11.97;9.80;;;12.10;99.90;;;;;;4845771;29;20054;-88
2022/06/08 05:42:08;;;;;;;19.30;9.70;;;12.10;99.90;;;;;;4861752;29;20045;-88
2022/06/08 05:44:35;;;;;;;15.18;9.98;;;12.20;99.90;;;;;;4859459;29;20065;-91
2022/06/08 05:47:02;;;;;;;14.80;10.02;;;12.20;99.90;;;;;;4878647;29;20060;-88
2022/06/08 05:49:32;;;;;;;17.63;11.45;;;12.40;99.90;;;;;;4864120;29;20093;-88
2022/06/08 05:51:58;;;;;;;15.90;10.07;;;12.40;99.90;;;;;;4895200;29;20112;-88
2022/06/08 05:54:24;;;;;;;20.40;11.33;;;12.50;99.90;;;;;;4863831;29;20459;-88
2022/06/08 05:56:49;;;;;;;15.38;10.35;;;12.60;99.90;;;;;;4863001;29;20076;-87
2022/06/08 05:59:15;;;;;;;15.63;10.43;;;12.60;99.90;;;;;;4879370;29;20045;-88
2022/06/08 06:01:41;;;;;;;16.33;10.83;;;12.70;99.90;;;;;;4863434;29;20048;-88
2022/06/08 06:04:07;;;;;;;16.80;10.63;;;12.80;99.90;;;;;;4878830;29;20077;-88
2022/06/08 06:06:34;;;;;;;16.98;9.93;;;12.90;99.90;;;;;;4878431;29;20049;-87
2022/06/08 06:09:01;;;;;;;16.25;10.50;;;12.90;99.90;;;;;;4863231;29;20408;-88
2022/06/08 06:11:26;;;;;;;15.70;10.48;;;13.00;99.90;;;;;;4879484;29;20063;-88
2022/06/08 06:13:56;;;;;;;17.87;12.40;;;13.10;99.90;;;;;;4845255;29;20045;-88
2022/06/08 06:16:22;;;;;;;16.23;9.43;;;13.20;99.90;;;;;;4874848;29;20314;-91
2022/06/08 06:18:47;;;;;;;16.93;10.20;;;13.30;99.90;;;;;;4846413;29;20083;-91
2022/06/08 06:21:20;;;;;;;14.13;10.18;;;13.50;99.90;;;;;;4876430;29;20049;-91
2022/06/08 06:23:46;;;;;;;16.15;9.18;;;13.70;99.90;;;;;;4876516;29;20061;-91
2022/06/08 06:26:14;;;;;;;14.93;8.93;;;13.80;99.90;;;;;;4872342;29;20041;-91
2022/06/08 06:28:45;;;;;;;17.73;10.05;;;13.80;99.90;;;;;;4876329;29;20091;-91
2022/06/08 06:31:17;;;;;;;13.93;9.45;;;13.80;99.90;;;;;;4867512;29;20467;-90
2022/06/08 06:33:43;;;;;;;12.48;8.13;;;13.90;99.90;;;;;;4893479;29;20496;-90
2022/06/08 06:36:09;;;;;;;12.57;8.43;;;13.90;99.90;;;;;;4877256;29;20052;-90
2022/06/08 06:38:35;;;;;;;12.85;7.25;;;14.00;99.90;;;;;;4894005;29;20055;-90
2022/06/08 06:41:05;;;;;;;12.02;8.18;;;14.10;99.90;;;;;;4862360;29;20246;-89
2022/06/08 06:43:31;;;;;;;14.35;9.05;;;14.30;99.90;;;;;;4863274;29;20411;-90
2022/06/08 06:46:02;;;;;;;14.10;8.13;;;13.70;99.90;;;;;;4871505;29;20408;-91
2022/06/08 06:48:31;;;;;;;8.02;7.07;;;14.80;99.90;;;;;;4894880;29;20144;-86
2022/06/08 06:50:56;;;;;;;15.98;7.53;;;15.00;99.90;;;;;;4890964;29;20131;-87
2022/06/08 06:53:22;;;;;;;11.97;7.93;;;14.30;99.90;;;;;;4878464;29;20127;-87
2022/06/08 06:55:48;;;;;;;8.77;7.20;;;15.30;99.90;;;;;;4876433;29;20306;-88
2022/06/08 06:58:14;;;;;;;11.77;7.17;;;15.40;99.90;;;;;;4878308;29;20053;-88
2022/06/08 07:00:39;;;;;;;8.38;6.97;;;15.40;99.90;;;;;;4877943;29;20448;-88
2022/06/08 07:03:05;;;;;;;10.90;7.35;;;15.60;99.90;;;;;;4858772;29;20097;-88
2022/06/08 07:05:34;;;;;;;7.85;6.47;;;15.70;99.90;;;;;;4861203;29;20044;-88
2022/06/08 07:08:00;;;;;;;9.32;5.50;;;15.80;99.90;;;;;;4856806;29;20493;-89
2022/06/08 07:10:26;;;;;;;9.60;6.07;;;15.90;99.90;;;;;;4864338;29;20059;-89
2022/06/08 07:12:54;;;;;;;9.70;5.30;;;16.10;99.90;;;;;;4860338;29;20449;-87
2022/06/08 07:15:33;;;;;;;;;;;;;;;;;;;;;
2022/06/08 07:17:59;;;;;;;6.00;5.40;;;16.20;99.90;;;;;;4870847;29;20049;-88
2022/06/08 07:20:27;;;;;;;8.55;4.55;;;16.40;99.90;;;;;;4850917;29;20053;-88
2022/06/08 07:22:55;;;;;;;6.28;4.18;;;16.40;99.90;;;;;;4848275;29;20488;-88
2022/06/08 07:25:28;;;;;;;3.88;2.78;;;15.60;99.90;;;;;;4877223;29;20045;-88
2022/06/08 07:27:57;;;;;;;5.30;4.30;;;16.50;99.90;;;;;;4872704;29;20404;-88
2022/06/08 07:30:28;;;;;;;3.78;3.35;;;16.60;99.90;;;;;;4854384;29;20576;-90
2022/06/08 07:33:05;;;;;;;7.93;4.38;;;16.70;99.90;;;;;;4872410;29;20053;-88
2022/06/08 07:35:31;;;;;;;6.10;4.18;;;16.70;99.90;;;;;;4873629;29;20060;-89
2022/06/08 07:37:59;;;;;;;5.53;3.53;;;16.70;99.90;;;;;;4858566;29;20041;-88
2022/06/08 07:40:28;;;;;;;4.53;3.53;;;16.70;99.90;;;;;;4857692;29;20446;-88
2022/06/08 07:42:54;;;;;;;4.70;3.13;;;16.70;99.90;;;;;;4858392;29;20060;-89
2022/06/08 07:45:20;;;;;;;6.50;2.80;;;16.80;99.90;;;;;;4873104;29;20041;-88
2022/06/08 07:50:30;;;;;;;4.18;2.60;;;16.90;99.90;;;;;;4855280;29;20113;-88
2022/06/08 07:52:56;;;;;;;7.18;4.15;;;17.00;99.90;;;;;;4874523;29;20058;-89
2022/06/08 07:55:24;;;;;;;4.25;2.85;;;17.00;99.90;;;;;;4857063;29;20049;-87
2022/06/08 07:57:53;;;;;;;3.67;2.58;;;17.00;99.90;;;;;;4873024;29;20115;-87
2022/06/08 08:00:22;;;;;;;4.03;2.75;;;16.90;99.90;;;;;;4879733;29;20076;-87
2022/06/08 08:02:48;;;;;;;4.03;2.50;;;16.90;99.90;;;;;;4868758;29;20045;-88
2022/06/08 08:05:16;;;;;;;3.90;2.42;;;16.90;99.90;;;;;;4881853;29;20117;-87
2022/06/08 08:07:42;;;;;;;2.53;2.33;;;17.00;99.90;;;;;;4857180;29;20046;-88
2022/06/08 08:10:14;;;;;;;2.65;2.30;;;17.10;99.90;;;;;;4881501;29;20121;-86
2022/06/08 08:12:40;;;;;;;4.80;2.53;;;17.10;99.90;;;;;;4868107;29;20421;-86
2022/06/08 08:15:07;;;;;;;3.20;2.25;;;17.30;99.90;;;;;;4861611;29;20045;-86
2022/06/08 08:17:33;;;;;;;2.83;2.50;;;17.50;99.90;;;;;;4876686;29;20064;-86
2022/06/08 08:19:59;;;;;;;2.85;2.00;;;17.60;99.90;;;;;;4855670;29;20056;-89
2022/06/08 08:22:25;;;;;;;4.05;2.47;;;17.80;99.90;;;;;;4876933;29;20404;-86
2022/06/08 08:24:50;;;;;;;2.07;1.63;;;17.80;99.90;;;;;;4876238;29;20407;-87
2022/06/08 08:27:16;;;;;;;2.22;1.75;;;18.00;99.90;;;;;;4862617;29;20308;-89
2022/06/08 08:29:42;;;;;;;4.88;2.22;;;18.10;99.90;;;;;;4859711;29;20045;-91
2022/06/08 08:32:09;;;;;;;2.10;1.73;;;17.70;99.90;;;;;;4879613;29;20047;-89
2022/06/08 08:34:36;;;;;;;2.97;1.40;;;18.30;99.90;;;;;;4866055;29;20104;-89
2022/06/08 08:37:05;;;;;;;2.22;1.50;;;17.50;99.90;;;;;;4878690;29;20041;-89
2022/06/08 08:39:31;;;;;;;2.10;1.33;;;18.50;99.90;;;;;;4882154;29;20053;-85
2022/06/08 08:44:49;;;;;;;2.55;1.77;;;18.70;99.90;;;;;;4862550;29;20455;-90
2022/06/08 08:47:53;;;;;;;2.20;1.38;;;18.70;99.90;;;;;;4881434;29;20480;-88
2022/06/08 08:50:25;;;;;;;2.42;1.80;;;18.60;99.90;;;;;;4839736;29;20057;-91
2022/06/08 08:52:56;;;;;;;1.95;1.67;;;18.50;99.90;;;;;;4870766;29;20049;-87
2022/06/08 08:55:44;;;;;;;3.13;1.92;;;18.40;99.90;;;;;;4853760;29;20063;-86
2022/06/08 08:58:16;;;;;;;1.23;1.13;;;18.40;99.90;;;;;;4864532;29;20044;-88
2022/06/08 09:00:51;;;;;;;1.10;1.00;;;18.40;99.90;;;;;;4877275;29;20132;-91
2022/06/08 09:03:32;;;;;;;3.30;2.17;;;18.40;99.90;;;;;;4862130;29;20049;-89
2022/06/08 09:06:14;;;;;;;4.05;2.08;;;18.50;99.90;;;;;;4860743;29;20049;-87
2022/06/08 09:08:43;;;;;;;5.90;2.15;;;18.70;99.90;;;;;;4875076;29;20037;-89
2022/06/08 09:11:27;;;;;;;2.35;1.90;;;18.80;99.90;;;;;;4862337;29;20055;-88
2022/06/08 09:14:03;;;;;;;3.97;2.35;;;18.70;99.90;;;;;;4879829;29;20043;-88
2022/06/08 09:16:39;;;;;;;3.10;2.58;;;18.70;99.90;;;;;;4878548;29;20076;-88
2022/06/08 09:19:26;;;;;;;2.67;1.80;;;18.70;99.90;;;;;;4881290;29;20064;-91
2022/06/08 09:22:13;;;;;;;4.53;3.13;;;18.70;99.90;;;;;;4865956;29;20054;-88
2022/06/08 09:24:57;;;;;;;2.67;2.47;;;18.80;99.90;;;;;;4851354;29;20071;-87
2022/06/08 09:27:33;;;;;;;3.22;2.45;;;18.80;99.90;;;;;;4879295;29;20144;-90
2022/06/08 09:30:08;;;;;;;3.83;2.88;;;18.90;99.90;;;;;;4863689;29;20143;-88
2022/06/08 09:32:49;;;;;;;2.08;1.70;;;18.90;99.90;;;;;;4859565;29;20121;-89
2022/06/08 09:35:26;;;;;;;2.85;2.50;;;19.10;99.90;;;;;;4877588;29;20394;-88
2022/06/08 09:38:06;;;;;;;5.35;2.42;;;19.20;99.90;;;;;;4864500;29;20119;-89
2022/06/08 09:40:47;;;;;;;3.42;2.75;;;19.30;99.90;;;;;;4872513;29;20198;-88
2022/06/08 09:43:25;;;;;;;4.93;2.28;;;19.30;99.90;;;;;;4861192;29;20080;-87
2022/06/08 09:45:55;;;;;;;4.13;2.28;;;19.20;99.90;;;;;;4869034;29;20053;-91
2022/06/08 09:51:49;;;;;;;3.38;2.17;;;19.20;99.90;;;;;;4895867;29;20155;-87
2022/06/08 09:54:33;;;;;;;2.30;2.10;;;19.20;99.90;;;;;;4853730;29;20049;-88
2022/06/08 09:57:21;;;;;;;2.80;2.20;;;19.10;99.90;;;;;;4851896;29;20101;-88
2022/06/08 10:00:20;;;;;;;4.25;2.78;;;19.00;99.90;;;;;;4845783;29;20108;-88
2022/06/08 10:03:14;;;;;;;3.45;2.10;;;18.90;99.90;;;;;;4857544;29;20052;-88
2022/06/08 10:06:06;;;;;;;4.70;2.75;;;18.80;99.90;;;;;;4862971;29;20416;-92
2022/06/08 10:08:51;;;;;;;6.45;3.22;;;18.80;99.90;;;;;;4878568;29;20087;-88
2022/06/08 10:11:48;;;;;;;3.55;2.60;;;18.90;99.90;;;;;;4850271;29;20507;-89
2022/06/08 10:14:30;;;;;;;2.28;2.08;;;19.10;99.90;;;;;;4877019;29;20437;-90
2022/06/08 10:17:18;;;;;;;2.33;2.10;;;19.30;99.90;;;;;;4850682;29;20136;-89
2022/06/08 10:20:12;;;;;;;4.05;2.45;;;19.50;99.90;;;;;;4862290;29;20064;-89
2022/06/08 10:22:47;;;;;;;2.40;2.13;;;19.70;99.90;;;;;;4861673;29;20042;-88
2022/06/08 10:25:22;;;;;;;2.97;2.10;;;19.80;99.90;;;;;;4874042;29;20045;-90
2022/06/08 10:28:18;;;;;;;3.63;2.83;;;19.80;99.90;;;;;;4878610;29;20049;-88
2022/06/08 10:30:57;;;;;;;3.33;2.22;;;19.70;99.90;;;;;;4877226;29;20052;-89
2022/06/08 10:33:35;;;;;;;2.08;1.88;;;19.80;99.90;;;;;;4863150;29;20052;-90
2022/06/08 10:36:12;;;;;;;2.90;1.98;;;19.80;99.90;;;;;;4876965;29;20041;-90
2022/06/08 10:38:42;;;;;;;;;;;19.90;99.90;;;;;;4877657;29;20131;-89
2022/06/08 10:44:48;;;;;;;3.70;1.85;;;19.90;99.90;;;;;;4878374;29;20403;-91
2022/06/08 10:47:16;;;;;;;3.00;1.80;;;19.80;99.90;;;;;;4878735;29;20116;-89
2022/06/08 10:49:49;;;;;;;2.63;2.10;;;19.70;99.90;;;;;;4893173;29;20060;-93
2022/06/08 10:52:21;;;;;;;2.05;1.85;;;19.60;99.90;;;;;;4865400;29;20538;-89
2022/06/08 10:55:15;;;;;;;2.25;1.50;;;19.30;99.90;;;;;;4862238;29;20061;-90
2022/06/08 10:57:47;;;;;;;2.75;1.75;;;19.80;99.90;;;;;;4876668;29;20084;-88
2022/06/08 11:00:19;;;;;;;4.53;1.83;;;19.90;99.90;;;;;;4877857;29;20057;-88
2022/06/08 11:03:03;;;;;;;1.80;1.58;;;19.90;99.90;;;;;;4851650;29;20173;-89
2022/06/08 11:05:40;;;;;;;2.08;1.73;;;20.00;99.90;;;;;;4875902;29;20049;-89
2022/06/08 11:08:14;;;;;;;2.35;1.80;;;19.00;99.90;;;;;;4854956;29;20070;-89
2022/06/08 11:10:51;;;;;;;3.28;2.92;;;20.20;99.90;;;;;;4871597;29;20049;-89
2022/06/08 11:13:23;;;;;;;3.55;2.78;;;20.10;99.90;;;;;;4876454;29;20073;-91
2022/06/08 11:15:52;;;;;;;2.63;2.00;;;20.20;99.90;;;;;;4860082;29;20531;-90
2022/06/08 11:18:47;;;;;;;2.95;2.35;;;19.30;99.90;;;;;;4875080;29;20053;-88
2022/06/08 11:21:42;;;;;;;3.05;2.00;;;20.30;99.90;;;;;;4846200;29;20053;-90
2022/06/08 11:24:31;;;;;;;2.42;1.65;;;21.10;99.90;;;;;;4867014;29;20049;-89
2022/06/08 11:27:02;;;;;;;2.10;1.92;;;20.50;99.90;;;;;;4872921;29;20057;-88
2022/06/08 11:29:31;;;;;;;2.20;1.98;;;20.50;99.90;;;;;;4852651;29;20045;-90
2022/06/08 11:32:01;;;;;;;2.35;2.00;;;20.50;99.90;;;;;;4846979;29;20519;-89
2022/06/08 11:34:41;;;;;;;6.40;1.92;;;20.50;99.90;;;;;;4853650;29;20449;-89
2022/06/08 11:37:53;;;;;;;3.45;3.15;;;20.50;99.90;;;;;;4892900;29;20045;-87
2022/06/08 11:40:36;;;;;;;2.85;2.25;;;20.40;99.90;;;;;;4840970;29;20057;-88
2022/06/08 11:43:23;;;;;;;;;;;;;;;;;;;;;
2022/06/08 11:45:55;;;;;;;2.53;2.28;;;20.30;99.90;;;;;;4877138;29;20051;-86
2022/06/08 11:48:26;;;;;;;3.78;2.13;;;20.10;99.90;;;;;;4862141;29;20133;-86
2022/06/08 11:51:03;;;;;;;4.28;2.35;;;20.10;99.90;;;;;;4877373;29;20548;-88
2022/06/08 11:53:31;;;;;;;3.42;2.72;;;20.00;99.90;;;;;;4868996;29;20045;-88
2022/06/08 11:56:29;;;;;;;4.18;2.25;;;19.70;99.90;;;;;;4861525;29;20053;-92
2022/06/08 11:59:05;;;;;;;3.00;1.95;;;19.90;99.90;;;;;;4874580;29;21794;-89
2022/06/08 12:01:52;;;;;;;4.03;2.67;;;19.80;99.90;;;;;;4875504;29;20071;-88
2022/06/08 12:04:36;;;;;;;;;;;19.60;99.90;;;;;;4873781;29;20484;-87
2022/06/08 12:07:02;;;;;;;3.78;2.80;;;19.50;99.90;;;;;;4875525;29;19947;-88
2022/06/08 12:09:33;;;;;;;3.85;3.45;;;19.30;99.90;;;;;;4871393;29;20496;-91
2022/06/08 12:12:11;;;;;;;2.47;2.28;;;19.10;99.90;;;;;;4874721;29;20180;-90
2022/06/08 12:14:37;;;;;;;;;;;17.80;99.90;;;;;;4857757;29;20433;-88
2022/06/08 12:17:31;;;;;;;1.92;1.45;;;18.40;99.90;;;;;;4873476;29;19924;-87
2022/06/08 12:20:01;;;;;;;2.28;1.02;;;18.10;99.90;;;;;;4857282;29;20145;-89
2022/06/08 12:22:29;;;;;;;3.25;1.23;;;17.70;99.90;;;;;;4853514;29;20053;-85
2022/06/08 12:25:18;;;;;;;1.40;1.02;;;17.40;99.90;;;;;;4854621;29;20049;-86
2022/06/08 12:27:52;;;;;;;1.80;1.35;;;17.10;99.90;;;;;;4874104;29;20053;-86
2022/06/08 12:30:23;;;;;;;2.45;1.42;;;17.00;99.90;;;;;;4859476;29;20053;-86
2022/06/08 12:32:53;;;;;;;4.13;1.55;;;16.90;99.90;;;;;;4858896;29;20060;-86
2022/06/08 12:35:27;;;;;;;1.92;1.60;;;16.70;99.90;;;;;;4857873;29;20500;-86
2022/06/08 12:38:17;;;;;;;2.13;1.50;;;16.90;99.90;;;;;;4858550;29;20505;-86
2022/06/08 12:41:02;;;;;;;1.10;1.00;;;16.80;99.90;;;;;;4858645;29;20056;-86
2022/06/08 12:43:41;;;;;;;2.83;2.10;;;16.70;99.90;;;;;;4845672;29;20064;-86
2022/06/08 12:46:17;;;;;;;2.47;1.73;;;16.60;99.90;;;;;;4862430;29;20061;-86
2022/06/08 12:48:55;;;;;;;6.38;1.48;;;16.50;99.90;;;;;;4876673;29;20117;-86
2022/06/08 12:51:33;;;;;;;2.88;1.73;;;16.40;99.90;;;;;;4862426;29;20053;-86
2022/06/08 12:54:14;;;;;;;2.58;1.83;;;16.40;99.90;;;;;;4862247;29;20108;-86
2022/06/08 12:56:40;;;;;;;4.15;1.65;;;16.30;99.90;;;;;;4862108;29;20524;-87
2022/06/08 12:59:06;;;;;;;1.40;1.30;;;16.20;99.90;;;;;;4862307;29;20058;-87
2022/06/08 13:01:32;;;;;;;1.43;1.33;;;16.20;99.90;;;;;;4860979;29;20058;-87
2022/06/08 13:03:58;;;;;;;3.83;1.87;;;16.10;99.90;;;;;;4846069;29;20052;-87
2022/06/08 13:06:24;;;;;;;1.45;1.25;;;16.10;99.90;;;;;;4893295;29;20152;-87
2022/06/08 13:08:50;;;;;;;4.50;1.98;;;16.10;99.90;;;;;;4877288;29;20053;-87
2022/06/08 13:11:18;;;;;;;;;;;16.10;99.90;;;;;;4862527;29;20120;-87
2022/06/08 13:13:45;;;;;;;3.78;2.50;;;16.20;99.90;;;;;;4877064;29;19928;-87
2022/06/08 13:16:19;;;;;;;2.55;2.20;;;16.20;99.90;;;;;;4861943;29;20052;-87
2022/06/08 13:18:45;;;;;;;1.90;1.75;;;16.20;99.90;;;;;;4866162;29;20061;-87
2022/06/08 13:21:12;;;;;;;3.50;2.80;;;16.30;99.90;;;;;;4861829;29;20086;-86
2022/06/08 13:23:38;;;;;;;6.47;2.75;;;16.40;99.90;;;;;;4861547;29;20057;-92
2022/06/08 13:26:11;;;;;;;3.47;2.75;;;16.40;99.90;;;;;;4861914;29;20092;-86
2022/06/08 13:28:37;;;;;;;5.85;2.90;;;16.50;99.90;;;;;;4861929;29;20059;-87
2022/06/08 13:31:09;;;;;;;2.67;2.42;;;16.50;99.90;;;;;;4861495;29;20548;-87
2022/06/08 13:36:21;;;;;;;4.97;3.92;;;16.50;99.90;;;;;;4876977;29;20060;-87